createdAt,value
2023-04-12T00:00:54.775Z,63.53
2023-04-12T00:03:22.551Z,63.73
2023-04-12T00:05:55.152Z,63.50
2023-04-12T00:08:24.904Z,62.63
2023-04-12T00:10:52.072Z,62.98
2023-04-12T00:13:19.931Z,62.32
2023-04-12T00:15:46.805Z,63.50
2023-04-12T00:18:13.731Z,63.17
2023-04-12T00:20:40.463Z,62.38
2023-04-12T00:23:07.414Z,61.81
2023-04-12T00:25:34.122Z,62.01
2023-04-12T00:28:00.936Z,62.39
2023-04-12T00:30:28.449Z,64.12
2023-04-12T00:32:55.248Z,62.26
2023-04-12T00:35:22.015Z,61.60
2023-04-12T00:37:48.778Z,62.15
2023-04-12T00:42:55.073Z,63.03
2023-04-12T00:45:21.793Z,63.16
2023-04-12T00:47:48.779Z,65.54
2023-04-12T00:50:15.493Z,68.21
2023-04-12T00:52:42.248Z,69.29
2023-04-12T00:55:10.450Z,69.93
2023-04-12T00:57:38.896Z,72.93
2023-04-12T01:00:08.436Z,74.31
2023-04-12T01:02:35.974Z,75.29
2023-04-12T01:05:03.170Z,75.95
2023-04-12T01:07:51.796Z,78.33
2023-04-12T01:13:09.809Z,78.50
2023-04-12T01:15:44.345Z,78.89
2023-04-12T01:18:21.285Z,79.49
2023-04-12T01:21:02.030Z,82.43
2023-04-12T01:23:41.643Z,82.32
2023-04-12T01:26:23.463Z,83.79
2023-04-12T01:28:54.285Z,84.14
2023-04-12T01:31:21.977Z,85.86
2023-04-12T01:33:50.747Z,85.96
2023-04-12T01:36:21.750Z,85.85
2023-04-12T01:38:48.759Z,86.61
2023-04-12T01:41:15.848Z,86.92
2023-04-12T01:43:43.838Z,86.71
2023-04-12T01:46:12.353Z,86.31
2023-04-12T01:48:39.615Z,87.61
2023-04-12T01:51:28.333Z,87.97
2023-04-12T01:56:37.920Z,87.21
2023-04-12T01:59:06.312Z,88.61
2023-04-12T02:01:33.813Z,88.93
2023-04-12T02:04:02.807Z,89.31
2023-04-12T02:06:30.264Z,90.80
2023-04-12T02:09:02.900Z,90.79
2023-04-12T02:11:30.102Z,91.79
2023-04-12T02:13:57.159Z,93.41
2023-04-12T02:16:24.355Z,91.29
2023-04-12T02:18:51.363Z,91.11
2023-04-12T02:21:18.786Z,92.48
2023-04-12T02:23:45.451Z,93.69
2023-04-12T02:26:12.160Z,94.13
2023-04-12T02:28:39.530Z,92.77
2023-04-12T02:31:07.354Z,93.00
2023-04-12T02:33:35.053Z,92.74
2023-04-12T02:36:04.796Z,93.26
2023-04-12T02:38:31.584Z,95.44
2023-04-12T02:40:58.334Z,95.22
2023-04-12T02:43:25.074Z,92.99
2023-04-12T02:45:51.779Z,94.07
2023-04-12T02:48:18.531Z,94.87
2023-04-12T02:50:45.163Z,94.67
2023-04-12T02:53:11.925Z,95.23
2023-04-12T02:55:39.054Z,94.43
2023-04-12T02:58:05.965Z,95.35
2023-04-12T03:00:32.615Z,98.12
2023-04-12T03:03:01.782Z,98.05
2023-04-12T03:05:28.919Z,98.98
2023-04-12T03:07:55.962Z,99.68
2023-04-12T03:10:22.738Z,99.24
2023-04-12T03:12:49.357Z,99.16
2023-04-12T03:15:16.160Z,100.00
2023-04-12T03:17:43.166Z,100.00
2023-04-12T03:20:10.364Z,100.00
2023-04-12T03:22:37.911Z,98.48
2023-04-12T03:25:05.610Z,100.00
2023-04-12T03:27:32.893Z,99.51
2023-04-12T03:29:59.618Z,100.00
2023-04-12T03:32:26.262Z,100.00
2023-04-12T03:34:53.011Z,100.00
2023-04-12T03:37:19.786Z,100.00
2023-04-12T03:39:48.575Z,100.00
2023-04-12T03:42:29.447Z,100.00
2023-04-12T03:44:59.531Z,100.00
2023-04-12T03:47:26.637Z,100.00
2023-04-12T03:50:10.296Z,100.00
2023-04-12T03:52:38.708Z,100.00
2023-04-12T03:55:08.058Z,100.00
2023-04-12T03:57:35.227Z,100.00
2023-04-12T04:00:02.768Z,100.00
2023-04-12T04:02:29.738Z,100.00
2023-04-12T04:04:56.565Z,100.00
2023-04-12T04:09:56.525Z,100.00
2023-04-12T04:12:23.221Z,100.00
2023-04-12T04:14:49.871Z,100.00
2023-04-12T04:17:16.599Z,100.00
2023-04-12T04:19:43.279Z,100.00
2023-04-12T04:22:10.349Z,100.00
2023-04-12T04:24:39.243Z,100.00
2023-04-12T04:27:06.675Z,100.00
2023-04-12T04:29:34.042Z,100.00
2023-04-12T04:32:01.689Z,100.00
2023-04-12T04:34:28.351Z,100.00
2023-04-12T04:36:54.963Z,100.00
2023-04-12T04:39:21.792Z,100.00
2023-04-12T04:41:55.002Z,100.00
2023-04-12T04:44:22.088Z,100.00
2023-04-12T04:46:49.439Z,100.00
2023-04-12T04:49:16.541Z,100.00
2023-04-12T04:51:43.250Z,100.00
2023-04-12T04:54:09.954Z,100.00
2023-04-12T04:56:36.621Z,100.00
2023-04-12T04:59:03.263Z,100.00
2023-04-12T05:01:29.959Z,100.00
2023-04-12T05:03:56.719Z,100.00
2023-04-12T05:06:23.794Z,100.00
2023-04-12T05:08:52.597Z,100.00
2023-04-12T05:11:20.279Z,100.00
2023-04-12T05:13:47.024Z,100.00
2023-04-12T05:16:13.926Z,100.00
2023-04-12T05:18:40.618Z,100.00
2023-04-12T05:21:07.475Z,100.00
2023-04-12T05:23:41.968Z,100.00
2023-04-12T05:26:08.784Z,100.00
2023-04-12T05:31:09.110Z,100.00
2023-04-12T05:33:36.934Z,100.00
2023-04-12T05:36:03.958Z,100.00
2023-04-12T05:38:30.888Z,100.00
2023-04-12T05:40:57.663Z,100.00
2023-04-12T05:43:24.391Z,100.00
2023-04-12T05:45:51.632Z,100.00
2023-04-12T05:48:19.187Z,100.00
2023-04-12T05:50:53.049Z,100.00
2023-04-12T05:53:19.786Z,100.00
2023-04-12T05:55:46.526Z,100.00
2023-04-12T05:58:13.882Z,100.00
2023-04-12T06:00:43.376Z,100.00
2023-04-12T06:03:11.878Z,100.00
2023-04-12T06:05:39.466Z,100.00
2023-04-12T06:08:06.586Z,100.00
2023-04-12T06:10:33.274Z,100.00
2023-04-12T06:12:59.988Z,100.00
2023-04-12T06:15:26.720Z,100.00
2023-04-12T06:17:53.485Z,100.00
2023-04-12T06:20:20.258Z,100.00
2023-04-12T06:22:46.956Z,100.00
2023-04-12T06:25:13.656Z,100.00
2023-04-12T06:27:40.527Z,100.00
2023-04-12T06:30:07.995Z,100.00
2023-04-12T06:32:34.648Z,100.00
2023-04-12T06:35:01.365Z,100.00
2023-04-12T06:37:28.023Z,100.00
2023-04-12T06:39:54.736Z,100.00
2023-04-12T06:42:21.373Z,100.00
2023-04-12T06:44:47.963Z,100.00
2023-04-12T06:47:15.367Z,100.00
2023-04-12T06:52:19.829Z,100.00
2023-04-12T06:54:46.616Z,100.00
2023-04-12T06:57:13.251Z,100.00
2023-04-12T06:59:39.846Z,100.00
2023-04-12T07:02:08.029Z,100.00
2023-04-12T07:04:35.162Z,100.00
2023-04-12T07:07:01.760Z,100.00
2023-04-12T07:09:32.523Z,100.00
2023-04-12T07:12:03.028Z,100.00
2023-04-12T07:14:29.743Z,100.00
2023-04-12T07:16:56.382Z,100.00
2023-04-12T07:19:22.995Z,100.00
2023-04-12T07:21:49.650Z,100.00
2023-04-12T07:24:16.449Z,100.00
2023-04-12T07:26:43.134Z,100.00
2023-04-12T07:29:09.788Z,100.00
2023-04-12T07:31:36.596Z,100.00
2023-04-12T07:34:03.744Z,100.00
2023-04-12T07:36:31.787Z,100.00
2023-04-12T07:38:58.715Z,100.00
2023-04-12T07:41:25.632Z,100.00
2023-04-12T07:43:52.408Z,100.00
2023-04-12T07:46:19.193Z,100.00
2023-04-12T07:48:45.956Z,100.00
2023-04-12T07:51:12.781Z,100.00
2023-04-12T07:56:20.655Z,100.00
2023-04-12T07:58:48.190Z,100.00
2023-04-12T08:01:16.130Z,100.00
2023-04-12T08:03:43.006Z,100.00
2023-04-12T08:06:10.402Z,100.00
2023-04-12T08:08:37.578Z,100.00
2023-04-12T08:11:06.610Z,100.00
2023-04-12T08:13:34.886Z,100.00
2023-04-12T08:16:02.108Z,100.00
2023-04-12T08:18:29.500Z,100.00
2023-04-12T08:20:59.127Z,100.00
2023-04-12T08:23:26.357Z,100.00
2023-04-12T08:25:59.640Z,100.00
2023-04-12T08:28:28.854Z,100.00
2023-04-12T08:30:55.750Z,100.00
2023-04-12T08:33:22.525Z,100.00
2023-04-12T08:35:49.734Z,100.00
2023-04-12T08:38:16.738Z,100.00
2023-04-12T08:40:44.232Z,100.00
2023-04-12T08:43:12.428Z,100.00
2023-04-12T08:45:39.176Z,100.00
2023-04-12T08:48:06.487Z,100.00
2023-04-12T08:50:33.610Z,100.00
2023-04-12T08:53:00.311Z,100.00
2023-04-12T08:55:27.030Z,100.00
2023-04-12T08:57:58.948Z,100.00
2023-04-12T09:00:26.613Z,100.00
2023-04-12T09:05:30.382Z,100.00
2023-04-12T09:07:58.382Z,100.00
2023-04-12T09:10:37.219Z,100.00
2023-04-12T09:13:07.104Z,100.00
2023-04-12T09:15:34.524Z,100.00
2023-04-12T09:18:07.149Z,100.00
2023-04-12T09:20:34.375Z,100.00
2023-04-12T09:23:03.040Z,100.00
2023-04-12T09:25:45.485Z,100.00
2023-04-12T09:28:26.297Z,100.00
2023-04-12T09:30:54.888Z,100.00
2023-04-12T09:33:24.630Z,100.00
2023-04-12T09:35:59.868Z,100.00
2023-04-12T09:38:26.555Z,100.00
2023-04-12T09:43:37.577Z,100.00
2023-04-12T09:46:14.669Z,100.00
2023-04-12T09:48:42.274Z,100.00
2023-04-12T09:51:09.053Z,100.00
2023-04-12T09:53:36.586Z,100.00
2023-04-12T09:56:04.116Z,100.00
2023-04-12T09:58:34.083Z,100.00
2023-04-12T10:01:03.936Z,100.00
2023-04-12T10:03:30.827Z,100.00
2023-04-12T10:05:57.782Z,100.00
2023-04-12T10:08:25.553Z,100.00
2023-04-12T10:13:27.831Z,100.00
2023-04-12T10:15:55.679Z,100.00
2023-04-12T10:18:22.639Z,100.00
2023-04-12T10:23:28.433Z,100.00
2023-04-12T10:25:57.287Z,100.00
2023-04-12T10:28:24.030Z,99.53
2023-04-12T10:30:52.495Z,96.42
2023-04-12T10:33:25.351Z,98.76
2023-04-12T10:36:08.709Z,94.86
2023-04-12T10:38:48.736Z,95.00
2023-04-12T10:41:19.602Z,94.94
2023-04-12T10:43:47.354Z,93.51
2023-04-12T10:46:46.071Z,94.29
2023-04-12T10:49:14.634Z,92.17
2023-04-12T10:52:01.419Z,91.65
2023-04-12T10:54:32.669Z,90.23
2023-04-12T10:56:59.362Z,90.62
2023-04-12T10:59:34.132Z,90.44
2023-04-12T11:02:12.746Z,89.11
2023-04-12T11:05:10.393Z,87.97
2023-04-12T11:07:42.397Z,87.57
2023-04-12T11:10:16.599Z,87.54
2023-04-12T11:12:50.968Z,86.67
2023-04-12T11:15:18.435Z,83.38
2023-04-12T11:17:55.241Z,83.56
2023-04-12T11:20:22.204Z,83.63
2023-04-12T11:22:52.051Z,85.55
2023-04-12T11:25:19.115Z,82.67
2023-04-12T11:27:53.696Z,82.67
2023-04-12T11:30:20.869Z,82.82
2023-04-12T11:32:47.937Z,82.57
2023-04-12T11:35:15.542Z,83.71
2023-04-12T11:37:42.316Z,80.96
2023-04-12T11:42:42.819Z,81.20
2023-04-12T11:45:17.062Z,81.33
2023-04-12T11:47:46.715Z,80.87
2023-04-12T11:50:13.648Z,80.44
2023-04-12T11:52:41.409Z,80.46
2023-04-12T11:55:11.415Z,81.05
2023-04-12T11:57:39.615Z,82.80
2023-04-12T12:00:07.293Z,80.51
2023-04-12T12:02:41.066Z,77.01
2023-04-12T12:05:13.397Z,75.47
2023-04-12T12:07:40.498Z,75.17
2023-04-12T12:10:08.251Z,75.02
2023-04-12T12:12:35.419Z,75.85
2023-04-12T12:15:02.546Z,75.24
2023-04-12T12:17:29.340Z,73.52
2023-04-12T12:19:58.856Z,74.31
2023-04-12T12:22:25.740Z,74.05
2023-04-12T12:27:40.844Z,73.26
2023-04-12T12:30:08.417Z,73.91
2023-04-12T12:32:37.492Z,73.56
2023-04-12T12:35:09.549Z,72.93
2023-04-12T12:37:36.684Z,71.09
2023-04-12T12:40:14.205Z,72.78
2023-04-12T12:42:52.190Z,72.19
2023-04-12T12:45:21.211Z,71.93
2023-04-12T12:47:55.055Z,71.40
2023-04-12T12:50:26.745Z,70.10
2023-04-12T12:52:54.986Z,70.13
2023-04-12T12:55:23.289Z,70.49
2023-04-12T12:58:06.609Z,69.77
2023-04-12T13:00:34.038Z,69.62
2023-04-12T13:03:01.033Z,70.88
2023-04-12T13:08:00.911Z,70.33
2023-04-12T13:10:27.677Z,70.56
2023-04-12T13:12:54.355Z,68.59
2023-04-12T13:15:23.677Z,67.86
2023-04-12T13:17:54.803Z,68.48
2023-04-12T13:20:22.493Z,69.23
2023-04-12T13:22:52.249Z,70.18
2023-04-12T13:25:22.226Z,69.41
2023-04-12T13:30:22.365Z,68.10
2023-04-12T13:32:49.182Z,68.01
2023-04-12T13:35:15.930Z,68.69
2023-04-12T13:37:42.791Z,68.14
2023-04-12T13:40:10.081Z,69.46
2023-04-12T13:42:36.715Z,69.08
2023-04-12T13:45:04.766Z,69.90
2023-04-12T13:47:33.986Z,68.96
2023-04-12T13:50:03.910Z,68.75
2023-04-12T13:52:30.630Z,68.76
2023-04-12T13:54:58.877Z,68.87
2023-04-12T13:57:25.961Z,69.11
2023-04-12T13:59:52.617Z,68.53
2023-04-12T14:02:19.358Z,68.89
2023-04-12T14:04:54.159Z,67.41
2023-04-12T14:07:21.420Z,67.77
2023-04-12T14:09:48.911Z,68.77
2023-04-12T14:12:15.936Z,68.49
2023-04-12T14:14:42.602Z,69.61
2023-04-12T14:17:09.346Z,68.81
2023-04-12T14:19:36.265Z,69.50
2023-04-12T14:22:03.003Z,68.34
2023-04-12T14:24:29.818Z,67.59
2023-04-12T14:26:57.426Z,67.50
2023-04-12T14:31:55.352Z,66.81
2023-04-12T14:34:22.236Z,64.92
2023-04-12T14:36:48.889Z,64.16
2023-04-12T14:39:16.272Z,65.25
2023-04-12T14:41:43.200Z,65.00
2023-04-12T14:44:09.909Z,65.19
2023-04-12T14:49:14.564Z,63.11
2023-04-12T14:51:41.414Z,64.90
2023-04-12T14:54:08.039Z,65.25
2023-04-12T14:56:41.028Z,65.43
2023-04-12T14:59:11.758Z,64.22
2023-04-12T15:01:38.957Z,63.65
2023-04-12T15:04:06.944Z,62.73
2023-04-12T15:06:35.670Z,62.98
2023-04-12T15:09:06.469Z,63.33
2023-04-12T15:11:35.897Z,62.82
2023-04-12T15:14:04.378Z,64.68
2023-04-12T15:16:31.268Z,63.26
2023-04-12T15:19:00.768Z,63.61
2023-04-12T15:21:31.428Z,64.57
2023-04-12T15:23:58.513Z,63.46
2023-04-12T15:26:25.615Z,65.87
2023-04-12T15:28:52.478Z,77.50
2023-04-12T15:31:19.111Z,83.59
2023-04-12T15:33:47.235Z,87.09
2023-04-12T15:36:16.821Z,87.34
2023-04-12T15:38:43.466Z,90.95
2023-04-12T15:41:10.739Z,91.66
2023-04-12T15:43:37.424Z,94.00
2023-04-12T15:46:04.357Z,97.68
2023-04-12T15:48:31.091Z,95.07
2023-04-12T15:50:57.808Z,94.67
2023-04-12T15:53:27.468Z,94.96
2023-04-12T15:55:57.911Z,93.89
2023-04-12T15:58:27.258Z,95.31
2023-04-12T16:00:54.385Z,97.05
2023-04-12T16:03:26.778Z,99.38
2023-04-12T16:05:54.199Z,94.57
2023-04-12T16:08:22.606Z,94.56
2023-04-12T16:10:51.033Z,96.47
2023-04-12T16:13:18.734Z,95.73
2023-04-12T16:15:46.113Z,93.80
2023-04-12T16:18:13.201Z,94.97
2023-04-12T16:20:41.199Z,94.24
2023-04-12T16:23:08.047Z,96.42
2023-04-12T16:25:36.266Z,96.07
2023-04-12T16:28:03.164Z,93.97
2023-04-12T16:30:31.996Z,94.31
2023-04-12T16:32:58.767Z,94.07
2023-04-12T16:35:25.590Z,94.77
2023-04-12T16:37:52.438Z,93.02
2023-04-12T16:40:19.291Z,91.30
2023-04-12T16:42:45.996Z,92.61
2023-04-12T16:45:15.253Z,92.33
2023-04-12T16:47:42.257Z,88.16
2023-04-12T16:50:09.609Z,89.48
2023-04-12T16:52:36.988Z,91.43
2023-04-12T16:55:04.265Z,89.39
2023-04-12T16:57:31.150Z,89.46
2023-04-12T16:59:57.992Z,88.61
2023-04-12T17:02:25.223Z,88.95
2023-04-12T17:04:52.111Z,90.77
2023-04-12T17:07:19.277Z,87.86
2023-04-12T17:09:46.008Z,88.42
2023-04-12T17:12:13.181Z,89.41
2023-04-12T17:14:39.994Z,88.91
2023-04-12T17:17:07.045Z,89.53
2023-04-12T17:19:34.096Z,87.98
2023-04-12T17:22:00.881Z,89.63
2023-04-12T17:27:01.177Z,90.96
2023-04-12T17:29:28.260Z,87.23
2023-04-12T17:31:55.780Z,86.17
2023-04-12T17:34:22.457Z,87.49
2023-04-12T17:36:49.414Z,87.01
2023-04-12T17:39:16.415Z,87.93
2023-04-12T17:41:43.212Z,87.93
2023-04-12T17:44:09.963Z,87.56
2023-04-12T17:49:10.424Z,87.51
2023-04-12T17:51:37.062Z,87.84
2023-04-12T17:54:03.887Z,88.90
2023-04-12T17:56:30.669Z,88.50
2023-04-12T17:58:57.973Z,89.07
2023-04-12T18:01:25.025Z,89.47
2023-04-12T18:03:52.496Z,88.30
2023-04-12T18:06:20.660Z,89.60
2023-04-12T18:08:47.448Z,90.22
2023-04-12T18:11:14.833Z,89.23
2023-04-12T18:13:42.103Z,90.21
2023-04-12T18:18:42.240Z,91.98
2023-04-12T18:21:09.088Z,92.42
2023-04-12T18:23:35.746Z,92.36
2023-04-12T18:26:05.751Z,93.54
2023-04-12T18:28:32.550Z,93.27
2023-04-12T18:31:00.107Z,95.18
2023-04-12T18:33:27.896Z,94.84
2023-04-12T18:35:55.502Z,94.82
2023-04-12T18:38:22.588Z,95.72
2023-04-12T18:40:49.803Z,95.02
2023-04-12T18:43:17.042Z,97.31
2023-04-12T18:48:17.247Z,94.58
2023-04-12T18:50:46.000Z,95.97
2023-04-12T18:53:12.716Z,94.34
2023-04-12T18:55:39.526Z,94.91
2023-04-12T18:58:07.225Z,94.97
2023-04-12T19:00:34.219Z,94.73
2023-04-12T19:03:01.243Z,94.96
2023-04-12T19:05:28.056Z,94.49
2023-04-12T19:07:56.092Z,95.21
2023-04-12T19:10:28.317Z,93.61
2023-04-12T19:12:55.036Z,94.05
2023-04-12T19:15:21.696Z,94.02
2023-04-12T19:17:49.624Z,92.84
2023-04-12T19:20:16.973Z,94.04
2023-04-12T19:22:43.997Z,93.12
2023-04-12T19:25:10.802Z,92.92
2023-04-12T19:27:38.666Z,93.06
2023-04-12T19:30:06.561Z,91.49
2023-04-12T19:32:33.379Z,92.39
2023-04-12T19:35:00.115Z,92.10
2023-04-12T19:40:01.919Z,92.95
2023-04-12T19:42:28.532Z,93.24
2023-04-12T19:44:55.337Z,92.54
2023-04-12T19:47:22.006Z,92.47
2023-04-12T19:49:49.322Z,92.75
2023-04-12T19:52:16.349Z,92.00
2023-04-12T19:54:43.470Z,91.86
2023-04-12T19:57:10.968Z,93.55
2023-04-12T19:59:37.716Z,93.46
2023-04-12T20:02:04.430Z,91.45
2023-04-12T20:04:31.479Z,92.49
2023-04-12T20:06:58.237Z,92.09
2023-04-12T20:09:26.343Z,91.22
2023-04-12T20:11:53.155Z,91.79
2023-04-12T20:14:20.051Z,90.60
2023-04-12T20:16:47.605Z,89.34
2023-04-12T20:19:14.323Z,89.98
2023-04-12T20:21:41.029Z,88.22
2023-04-12T20:24:09.041Z,88.94
2023-04-12T20:26:36.556Z,88.26
2023-04-12T20:29:08.140Z,87.80
2023-04-12T20:31:35.019Z,87.54
2023-04-12T20:34:01.809Z,85.89
2023-04-12T20:36:29.776Z,85.71
2023-04-12T20:38:56.624Z,85.95
2023-04-12T20:41:24.486Z,86.42
2023-04-12T20:43:51.193Z,86.71
2023-04-12T20:46:20.055Z,86.89
2023-04-12T20:48:48.262Z,86.38
2023-04-12T20:51:16.217Z,86.11
2023-04-12T20:53:49.245Z,86.09
2023-04-12T20:56:18.948Z,87.17
2023-04-12T20:58:49.977Z,88.37
2023-04-12T21:01:16.811Z,88.85
2023-04-12T21:03:43.713Z,86.89
2023-04-12T21:06:11.123Z,88.93
2023-04-12T21:08:39.186Z,92.96
2023-04-12T21:11:06.439Z,92.88
2023-04-12T21:13:34.772Z,96.10
2023-04-12T21:16:05.712Z,96.32
2023-04-12T21:18:34.473Z,98.27
2023-04-12T21:21:01.676Z,98.01
2023-04-12T21:26:05.746Z,98.25
2023-04-12T21:28:32.530Z,98.41
2023-04-12T21:30:59.576Z,99.47
2023-04-12T21:33:26.471Z,97.84
2023-04-12T21:35:54.926Z,99.67
2023-04-12T21:38:24.430Z,100.00
2023-04-12T21:40:51.769Z,100.00
2023-04-12T21:43:18.699Z,97.83
2023-04-12T21:45:45.620Z,99.28
2023-04-12T21:48:14.711Z,99.12
2023-04-12T21:50:42.183Z,98.50
2023-04-12T21:53:09.213Z,98.62
2023-04-12T21:55:36.574Z,96.66
2023-04-12T21:58:03.982Z,97.21
2023-04-12T22:00:32.341Z,98.49
2023-04-12T22:02:59.989Z,95.88
2023-04-12T22:05:28.022Z,97.72
2023-04-12T22:07:55.702Z,97.32
2023-04-12T22:10:22.378Z,98.47
2023-04-12T22:12:51.424Z,97.60
2023-04-12T22:15:18.232Z,97.85
2023-04-12T22:17:45.492Z,100.00
2023-04-12T22:20:13.220Z,97.90
2023-04-12T22:22:40.940Z,97.34
2023-04-12T22:25:12.054Z,98.88
2023-04-12T22:27:39.616Z,100.00
2023-04-12T22:30:08.641Z,97.51
2023-04-12T22:32:35.344Z,96.55
2023-04-12T22:35:08.326Z,96.31
2023-04-12T22:37:36.424Z,95.92
2023-04-12T22:40:05.201Z,98.36
2023-04-12T22:42:32.050Z,97.77
2023-04-12T22:44:59.536Z,99.85
2023-04-12T22:47:27.184Z,99.92
2023-04-12T22:50:00.582Z,97.08
2023-04-12T22:52:33.713Z,97.41
2023-04-12T22:55:00.353Z,96.99
2023-04-12T22:57:27.641Z,98.46
2023-04-12T22:59:54.245Z,94.73
2023-04-12T23:02:20.942Z,94.14
2023-04-12T23:04:49.370Z,94.50
2023-04-12T23:07:16.085Z,91.66
2023-04-12T23:09:42.937Z,93.96
2023-04-12T23:12:09.504Z,92.70
2023-04-12T23:14:37.873Z,94.22
2023-04-12T23:17:04.557Z,95.61
2023-04-12T23:19:31.214Z,95.16
2023-04-12T23:21:57.822Z,92.60
2023-04-12T23:24:25.327Z,95.43
2023-04-12T23:29:25.913Z,95.33
2023-04-12T23:34:26.732Z,94.94
2023-04-12T23:36:53.443Z,94.17
2023-04-12T23:39:20.486Z,95.19
2023-04-12T23:41:47.111Z,96.09
2023-04-12T23:44:14.523Z,95.55
2023-04-12T23:46:41.248Z,93.39
2023-04-12T23:49:08.680Z,93.96
2023-04-12T23:51:35.306Z,93.71
2023-04-12T23:54:01.995Z,90.85
2023-04-12T23:56:28.690Z,91.43
2023-04-12T23:58:55.415Z,90.10
